createdAt,value
2022-12-15T00:03:41.476Z,23.20
2022-12-15T00:08:42.490Z,22.80
2022-12-15T00:13:44.723Z,24.30
2022-12-15T00:18:45.504Z,21.87
2022-12-15T00:23:46.205Z,22.70
2022-12-15T00:28:48.601Z,27.23
2022-12-15T00:33:49.591Z,25.50
2022-12-15T00:38:43.636Z,24.63
2022-12-15T00:43:27.420Z,23.20
2022-12-15T00:48:12.508Z,22.73
2022-12-15T00:53:13.615Z,22.30
2022-12-15T00:58:14.350Z,23.40
2022-12-15T01:03:15.736Z,22.53
2022-12-15T01:08:19.637Z,23.93
2022-12-15T01:13:20.986Z,27.87
2022-12-15T01:18:22.170Z,29.50
2022-12-15T01:23:07.173Z,27.17
2022-12-15T01:27:51.304Z,24.97
2022-12-15T01:32:34.855Z,23.20
2022-12-15T01:37:18.709Z,23.27
2022-12-15T01:42:03.541Z,21.50
2022-12-15T01:46:48.421Z,22.20
2022-12-15T01:51:34.963Z,25.43
2022-12-15T01:56:20.737Z,25.63
2022-12-15T02:01:06.002Z,28.13
2022-12-15T02:05:49.452Z,28.10
2022-12-15T02:10:49.262Z,26.27
2022-12-15T02:15:39.833Z,24.60
2022-12-15T02:20:44.818Z,24.77
2022-12-15T02:26:02.476Z,23.93
2022-12-15T02:31:12.838Z,26.47
2022-12-15T02:36:01.857Z,23.77
2022-12-15T02:40:46.008Z,23.33
2022-12-15T02:45:36.082Z,21.60
2022-12-15T02:50:39.369Z,22.50
2022-12-15T02:55:34.088Z,23.63
2022-12-15T03:00:19.152Z,23.17
2022-12-15T03:05:03.083Z,21.40
2022-12-15T03:09:47.943Z,20.50
2022-12-15T03:14:31.751Z,19.73
2022-12-15T03:19:15.161Z,21.73
2022-12-15T03:23:59.131Z,20.43
2022-12-15T03:28:44.034Z,24.73
2022-12-15T03:33:27.725Z,24.67
2022-12-15T03:38:11.222Z,24.90
2022-12-15T03:42:54.652Z,25.23
2022-12-15T03:47:42.448Z,26.13
2022-12-15T03:52:25.846Z,25.03
2022-12-15T03:57:09.502Z,26.40
2022-12-15T04:01:52.984Z,23.27
2022-12-15T04:06:37.937Z,23.00
2022-12-15T04:11:21.443Z,22.40
2022-12-15T04:16:05.713Z,21.60
2022-12-15T04:20:50.243Z,20.73
2022-12-15T04:25:53.762Z,22.23
2022-12-15T04:30:55.126Z,20.53
2022-12-15T04:35:56.264Z,19.13
2022-12-15T04:40:58.554Z,19.57
2022-12-15T04:45:59.725Z,17.90
2022-12-15T04:51:00.760Z,17.17
2022-12-15T04:56:02.899Z,19.20
2022-12-15T05:01:03.611Z,21.60
2022-12-15T05:06:05.027Z,18.23
2022-12-15T05:11:07.532Z,17.00
2022-12-15T05:16:08.641Z,17.93
2022-12-15T05:21:09.775Z,18.60
2022-12-15T05:26:12.026Z,18.67
2022-12-15T05:31:12.924Z,20.10
2022-12-15T05:35:59.247Z,18.83
2022-12-15T05:40:42.759Z,21.83
2022-12-15T05:45:28.009Z,21.77
2022-12-15T05:50:11.834Z,21.53
2022-12-15T05:54:55.394Z,22.70
2022-12-15T05:59:39.422Z,23.37
2022-12-15T06:04:24.443Z,22.67
2022-12-15T06:09:08.097Z,22.13
2022-12-15T06:13:52.476Z,21.30
2022-12-15T06:18:37.858Z,22.97
2022-12-15T06:23:23.044Z,24.23
2022-12-15T06:28:06.582Z,22.07
2022-12-15T06:32:50.081Z,23.83
2022-12-15T06:37:33.477Z,23.93
2022-12-15T06:42:18.464Z,22.87
2022-12-15T06:47:01.989Z,22.10
2022-12-15T06:51:45.449Z,22.87
2022-12-15T06:56:34.035Z,24.40
2022-12-15T07:01:20.190Z,26.30
2022-12-15T07:06:05.522Z,26.20
2022-12-15T07:10:48.974Z,27.97
2022-12-15T07:15:33.167Z,26.27
2022-12-15T07:20:20.892Z,26.60
2022-12-15T07:25:09.026Z,26.03
2022-12-15T07:29:52.721Z,25.10
2022-12-15T07:34:36.431Z,24.03
2022-12-15T07:39:21.382Z,23.17
2022-12-15T07:44:04.892Z,23.53
2022-12-15T07:48:50.869Z,25.77
2022-12-15T07:53:35.077Z,25.80
2022-12-15T07:58:20.228Z,26.07
2022-12-15T08:03:04.150Z,27.70
2022-12-15T08:07:48.101Z,25.97
2022-12-15T08:12:32.766Z,23.30
2022-12-15T08:17:17.758Z,20.00
2022-12-15T08:22:01.255Z,20.73
2022-12-15T08:26:49.910Z,20.70
2022-12-15T08:31:35.220Z,17.83
2022-12-15T08:36:21.031Z,17.47
2022-12-15T08:41:10.137Z,17.37
2022-12-15T08:45:53.778Z,16.77
2022-12-15T08:50:37.355Z,17.23
2022-12-15T08:55:23.901Z,18.57
2022-12-15T09:00:08.509Z,17.77
2022-12-15T09:04:52.353Z,18.53
2022-12-15T09:09:35.942Z,16.27
2022-12-15T09:14:29.127Z,18.97
2022-12-15T09:19:12.892Z,17.27
2022-12-15T09:24:00.864Z,18.77
2022-12-15T09:28:45.226Z,19.97
2022-12-15T09:33:36.008Z,20.23
2022-12-15T09:38:20.204Z,21.23
2022-12-15T09:43:33.388Z,20.90
2022-12-15T09:48:12.557Z,19.60
2022-12-15T09:52:59.533Z,19.43
2022-12-15T09:57:49.972Z,16.90
2022-12-15T10:03:05.925Z,19.67
2022-12-15T10:07:51.412Z,20.93
2022-12-15T10:12:42.005Z,18.70
2022-12-15T10:17:42.501Z,19.47
2022-12-15T10:22:28.989Z,17.80
2022-12-15T10:27:36.452Z,16.20
2022-12-15T10:32:26.827Z,13.87
2022-12-15T10:37:18.248Z,13.97
2022-12-15T10:42:22.217Z,13.90
2022-12-15T10:47:11.663Z,13.60
2022-12-15T10:52:00.453Z,15.63
2022-12-15T10:56:50.455Z,12.40
2022-12-15T11:01:36.502Z,12.80
2022-12-15T11:06:22.920Z,11.50
2022-12-15T11:11:47.433Z,11.10
2022-12-15T11:16:33.954Z,10.47
2022-12-15T11:21:23.573Z,11.57
2022-12-15T11:26:21.354Z,10.43
2022-12-15T11:31:09.474Z,10.37
2022-12-15T11:36:09.904Z,11.63
2022-12-15T11:40:57.746Z,11.33
2022-12-15T11:45:53.176Z,11.30
2022-12-15T11:50:51.125Z,11.10
2022-12-15T11:55:44.516Z,12.03
2022-12-15T12:00:30.346Z,10.63
2022-12-15T12:05:53.213Z,11.57
2022-12-15T12:10:43.062Z,12.53
2022-12-15T12:15:32.754Z,13.77
2022-12-15T12:20:20.602Z,11.97
2022-12-15T12:25:11.959Z,13.03
2022-12-15T12:30:02.020Z,13.03
2022-12-15T12:35:31.635Z,14.30
2022-12-15T12:40:08.266Z,12.97
2022-12-15T12:44:51.731Z,15.13
2022-12-15T12:49:40.525Z,17.20
2022-12-15T12:54:47.882Z,16.03
2022-12-15T12:59:42.832Z,16.80
2022-12-15T13:04:41.835Z,14.67
2022-12-15T13:09:37.789Z,14.70
2022-12-15T13:14:26.462Z,14.20
2022-12-15T13:19:11.979Z,14.10
2022-12-15T13:24:03.016Z,14.67
2022-12-15T13:28:51.937Z,14.83
2022-12-15T13:33:45.339Z,15.73
2022-12-15T13:38:57.308Z,16.33
2022-12-15T13:43:47.332Z,15.90
2022-12-15T13:48:36.443Z,16.03
2022-12-15T13:53:23.700Z,17.13
2022-12-15T13:58:16.093Z,15.80
2022-12-15T14:03:08.211Z,17.20
2022-12-15T14:07:59.383Z,17.07
2022-12-15T14:12:43.053Z,17.00
2022-12-15T14:17:33.037Z,18.13
2022-12-15T14:22:28.966Z,15.67
2022-12-15T14:27:24.549Z,15.77
2022-12-15T14:32:10.305Z,16.43
2022-12-15T14:36:57.368Z,17.87
2022-12-15T14:41:48.817Z,16.10
2022-12-15T14:46:32.992Z,15.87
2022-12-15T14:51:16.612Z,16.63
2022-12-15T14:56:14.666Z,16.20
2022-12-15T15:00:59.105Z,16.57
2022-12-15T15:05:44.357Z,16.13
2022-12-15T15:10:32.032Z,16.27
2022-12-15T15:15:20.086Z,16.40
2022-12-15T15:20:05.959Z,15.90
2022-12-15T15:24:55.607Z,17.43
2022-12-15T15:29:41.266Z,25.03
2022-12-15T15:34:27.194Z,24.97
2022-12-15T15:39:16.356Z,19.83
2022-12-15T15:44:02.139Z,22.23
2022-12-15T15:48:48.844Z,24.90
2022-12-15T15:53:35.737Z,22.90
2022-12-15T15:58:19.324Z,22.40
2022-12-15T16:03:02.922Z,23.47
2022-12-15T16:07:49.296Z,20.30
2022-12-15T16:12:42.549Z,20.83
2022-12-15T16:17:26.074Z,19.77
2022-12-15T16:22:15.060Z,20.60
2022-12-15T16:27:01.577Z,19.77
2022-12-15T16:31:47.038Z,19.57
2022-12-15T16:36:30.830Z,20.67
2022-12-15T16:41:17.707Z,21.83
2022-12-15T16:46:01.778Z,23.30
2022-12-15T16:50:51.954Z,22.83
2022-12-15T16:55:47.433Z,21.37
2022-12-15T17:00:35.935Z,22.63
2022-12-15T17:05:22.084Z,22.50
2022-12-15T17:10:10.872Z,23.47
2022-12-15T17:14:54.431Z,24.57
2022-12-15T17:19:37.846Z,25.40
2022-12-15T17:24:24.183Z,26.07
2022-12-15T17:29:15.151Z,25.67
2022-12-15T17:33:59.947Z,25.43
2022-12-15T17:38:44.643Z,25.37
2022-12-15T17:43:35.416Z,22.93
2022-12-15T17:48:22.772Z,24.53
2022-12-15T17:53:07.800Z,26.77
2022-12-15T17:57:55.911Z,25.10
2022-12-15T18:02:41.605Z,23.60
2022-12-15T18:07:28.159Z,25.13
2022-12-15T18:12:19.828Z,26.20
2022-12-15T18:17:03.384Z,25.00
2022-12-15T18:21:47.419Z,26.13
2022-12-15T18:26:38.280Z,27.37
2022-12-15T18:31:26.111Z,25.20
2022-12-15T18:36:11.186Z,23.17
2022-12-15T18:41:01.928Z,21.40
2022-12-15T18:45:47.926Z,22.47
2022-12-15T18:50:31.976Z,21.10
2022-12-15T18:55:24.640Z,21.30
2022-12-15T19:00:20.409Z,21.33
2022-12-15T19:05:29.349Z,21.73
2022-12-15T19:10:16.214Z,20.27
2022-12-15T19:15:17.087Z,19.87
2022-12-15T19:20:19.058Z,19.77
2022-12-15T19:25:06.577Z,19.33
2022-12-15T19:29:58.346Z,20.23
2022-12-15T19:34:43.067Z,18.93
2022-12-15T19:39:28.300Z,20.13
2022-12-15T19:44:19.177Z,20.80
2022-12-15T19:49:06.848Z,18.73
2022-12-15T19:53:53.003Z,20.93
2022-12-15T19:58:39.697Z,20.47
2022-12-15T20:03:27.063Z,19.33
2022-12-15T20:08:15.030Z,21.67
2022-12-15T20:13:01.019Z,22.23
2022-12-15T20:17:46.601Z,23.57
2022-12-15T20:22:32.055Z,24.33
2022-12-15T20:27:19.829Z,23.67
2022-12-15T20:32:06.367Z,24.50
2022-12-15T20:36:51.793Z,25.40
2022-12-15T20:41:38.495Z,26.23
2022-12-15T20:46:24.778Z,26.80
2022-12-15T20:51:10.717Z,25.27
2022-12-15T20:55:57.572Z,26.40
2022-12-15T21:00:43.764Z,26.30
2022-12-15T21:05:27.582Z,26.90
2022-12-15T21:10:13.910Z,26.47
2022-12-15T21:14:58.785Z,26.50
2022-12-15T21:19:44.462Z,25.30
2022-12-15T21:24:30.109Z,26.93
2022-12-15T21:29:16.319Z,26.83
2022-12-15T21:34:01.013Z,26.53
2022-12-15T21:38:48.433Z,27.73
2022-12-15T21:43:34.172Z,26.30
2022-12-15T21:48:35.195Z,25.83
2022-12-15T21:53:19.246Z,18.97
2022-12-15T21:58:04.203Z,29.23
2022-12-15T22:02:49.062Z,25.23
2022-12-15T22:07:33.867Z,22.37
2022-12-15T22:12:21.540Z,22.30
2022-12-15T22:17:16.418Z,22.70
2022-12-15T22:21:59.867Z,23.37
2022-12-15T22:26:43.738Z,22.73
2022-12-15T22:31:27.887Z,23.27
2022-12-15T22:36:12.978Z,23.60
2022-12-15T22:41:00.095Z,23.27
2022-12-15T22:45:43.750Z,23.83
2022-12-15T22:50:28.173Z,22.63
2022-12-15T22:55:15.153Z,21.47
2022-12-15T23:00:04.297Z,21.47
2022-12-15T23:04:47.874Z,20.50
2022-12-15T23:09:31.553Z,22.37
2022-12-15T23:14:18.480Z,21.53
2022-12-15T23:19:03.038Z,21.60
2022-12-15T23:23:46.883Z,20.77
2022-12-15T23:28:30.905Z,18.80
2022-12-15T23:33:15.810Z,19.97
2022-12-15T23:37:59.761Z,18.47
2022-12-15T23:42:43.217Z,19.33
2022-12-15T23:47:26.695Z,18.47
2022-12-15T23:52:12.165Z,19.10
2022-12-15T23:56:55.616Z,18.23
